Time;durP1;ratioP1;P1;durP2;ratioP2;P2;SDS_P1;SDS_P2;PMS_P1;PMS_P2;Temp;Humidity;BMP_temperature;BMP_pressure;BME280_temperature;BME280_humidity;BME280_pressure;Samples;Min_cycle;Max_cycle;Signal;HPM_P1;HPM_P2
2023/01/30 00:01:37;;;;;;;58.00;43.60;;;;;;;3.92;100.00;101784.09;5092335;28;20030;-58
2023/01/30 00:04:03;;;;;;;54.03;42.40;;;;;;;3.88;100.00;101756.97;5092978;28;20400;-58
2023/01/30 00:06:28;;;;;;;57.65;44.13;;;;;;;3.97;100.00;101751.53;5081388;28;20032;-57
2023/01/30 00:08:54;;;;;;;53.00;41.53;;;;;;;3.99;100.00;101733.94;5089714;28;20070;-58
2023/01/30 00:11:20;;;;;;;54.75;43.42;;;;;;;3.96;100.00;101738.41;5075986;28;20527;-58
2023/01/30 00:13:47;;;;;;;50.92;41.88;;;;;;;4.02;100.00;101748.78;5093973;28;20032;-58
2023/01/30 00:16:13;;;;;;;52.42;42.90;;;;;;;4.05;100.00;101743.47;5075395;28;20530;-58
2023/01/30 00:18:40;;;;;;;54.33;41.97;;;;;;;4.03;100.00;101734.72;5093289;28;20032;-58
2023/01/30 00:21:07;;;;;;;50.00;43.42;;;;;;;4.08;100.00;101706.53;5091040;28;20102;-57
2023/01/30 00:23:34;;;;;;;52.95;42.22;;;;;;;4.12;100.00;101729.28;5070817;28;20040;-57
2023/01/30 00:25:59;;;;;;;52.58;40.47;;;;;;;4.12;100.00;101712.59;5062308;28;20032;-58
2023/01/30 00:28:25;;;;;;;56.40;43.13;;;;;;;4.07;100.00;101707.44;5074429;28;20024;-58
2023/01/30 00:30:52;;;;;;;56.17;41.90;;;;;;;4.16;100.00;101730.06;5087484;28;20047;-58
2023/01/30 00:33:19;;;;;;;54.40;42.15;;;;;;;4.18;100.00;101737.03;5081887;28;20029;-58
2023/01/30 00:35:45;;;;;;;54.20;41.88;;;;;;;4.22;100.00;101735.19;5089872;28;20089;-58
2023/01/30 00:38:11;;;;;;;53.20;41.42;;;;;;;4.21;100.00;101728.22;5092794;28;20028;-58
2023/01/30 00:40:36;;;;;;;51.08;39.63;;;;;;;4.20;100.00;101724.69;5097792;28;20397;-58
2023/01/30 00:48:35;;;;;;;53.22;42.63;;;;;;;4.28;100.00;101711.38;5093520;28;20581;-58
2023/01/30 00:51:03;;;;;;;60.78;44.00;;;;;;;4.29;100.00;101720.97;5072988;28;20024;-58
2023/01/30 00:53:28;;;;;;;56.50;43.65;;;;;;;4.30;100.00;101709.56;5080502;28;20031;-58
2023/01/30 00:55:54;;;;;;;52.03;41.10;;;;;;;4.29;100.00;101723.63;5096385;28;20050;-58
2023/01/30 00:58:21;;;;;;;52.92;41.80;;;;;;;4.32;100.00;101729.72;5092918;28;20024;-58
2023/01/30 01:00:47;;;;;;;51.30;42.40;;;;;;;4.36;100.00;101708.56;5082455;28;20030;-58
2023/01/30 01:03:13;;;;;;;49.42;41.92;;;;;;;4.35;100.00;101709.44;5074989;28;20075;-58
2023/01/30 01:05:38;;;;;;;51.85;41.95;;;;;;;4.30;100.00;101693.78;5092879;28;20030;-58
2023/01/30 01:08:06;;;;;;;49.97;42.55;;;;;;;4.33;100.00;101705.09;5082037;28;20035;-59
2023/01/30 01:10:31;;;;;;;52.55;42.10;;;;;;;4.42;100.00;101709.28;5093441;28;20103;-58
2023/01/30 01:12:59;;;;;;;52.70;41.22;;;;;;;4.38;100.00;101710.22;5077325;28;20089;-58
2023/01/30 01:15:25;;;;;;;52.88;42.95;;;;;;;4.39;100.00;101701.44;5093321;28;20031;-58
2023/01/30 01:17:51;;;;;;;54.33;41.45;;;;;;;4.42;100.00;101703.16;5092943;28;20031;-58
2023/01/30 01:20:19;;;;;;;51.13;42.15;;;;;;;4.43;100.00;101692.56;5091132;28;20488;-58
2023/01/30 01:22:48;;;;;;;46.78;40.22;;;;;;;4.44;100.00;101694.31;5092876;28;20096;-58
2023/01/30 01:25:14;;;;;;;51.70;42.20;;;;;;;4.46;100.00;101702.16;5085494;28;20020;-58
2023/01/30 01:27:39;;;;;;;47.40;39.30;;;;;;;4.51;100.00;101702.94;5082206;28;20027;-58
2023/01/30 01:30:05;;;;;;;53.40;42.78;;;;;;;4.50;100.00;101686.25;5088562;28;20024;-58
2023/01/30 01:32:31;;;;;;;47.53;39.95;;;;;;;4.53;100.00;101687.97;5090573;28;20049;-58
2023/01/30 01:34:56;;;;;;;51.63;42.47;;;;;;;4.52;100.00;101683.56;5074258;28;20028;-58
2023/01/30 01:37:22;;;;;;;46.70;40.85;;;;;;;4.42;100.00;101648.69;5092653;28;20105;-58
2023/01/30 01:42:38;;;;;;;54.00;41.15;;;;;;;4.63;100.00;101676.28;5075848;28;20545;-58
2023/01/30 01:45:12;;;;;;;49.80;40.13;;;;;;;4.62;100.00;101674.56;5079115;28;20095;-58
2023/01/30 01:47:46;;;;;;;51.70;40.53;;;;;;;4.60;100.00;101660.56;5092408;28;20039;-59
2023/01/30 01:50:21;;;;;;;53.85;40.25;;;;;;;4.71;100.00;101670.81;5092211;28;20027;-58
2023/01/30 01:52:50;;;;;;;49.03;40.42;;;;;;;4.68;100.00;101652.47;5092505;28;20491;-58
2023/01/30 01:55:16;;;;;;;51.17;40.97;;;;;;;4.63;100.00;101635.91;5094814;28;20028;-58
2023/01/30 01:57:52;;;;;;;52.95;41.60;;;;;;;4.75;100.00;101640.84;5077419;28;20387;-58
2023/01/30 02:00:20;;;;;;;48.92;39.22;;;;;;;4.78;100.00;101633.72;5080512;28;20021;-58
2023/01/30 02:02:53;;;;;;;45.72;38.13;;;;;;;4.78;100.00;101633.72;5056804;28;20021;-58
2023/01/30 02:05:19;;;;;;;47.90;39.63;;;;;;;4.76;100.00;101618.84;5090696;28;20024;-58
2023/01/30 02:07:52;;;;;;;48.75;39.83;;;;;;;4.76;100.00;101625.00;5092041;28;20062;-58
2023/01/30 02:10:32;;;;;;;52.00;41.17;;;;;;;4.82;100.00;101631.00;5092015;28;20016;-58
2023/01/30 02:12:57;;;;;;;48.00;38.70;;;;;;;4.80;100.00;101632.84;5091649;28;20063;-58
2023/01/30 02:15:23;;;;;;;50.28;40.58;;;;;;;4.83;100.00;101623.06;5086451;28;20107;-58
2023/01/30 02:17:48;;;;;;;43.78;35.85;;;;;;;4.84;100.00;101619.50;5079518;28;20028;-58
2023/01/30 02:20:29;;;;;;;49.55;40.88;;;;;;;4.88;100.00;101626.44;5088925;28;20109;-58
2023/01/30 02:22:55;;;;;;;49.15;38.72;;;;;;;4.88;100.00;101612.38;5097461;28;20039;-58
2023/01/30 02:25:32;;;;;;;50.80;40.10;;;;;;;4.87;100.00;101585.16;5093788;28;20023;-58
2023/01/30 02:28:15;;;;;;;49.95;39.03;;;;;;;4.95;100.00;101591.09;5073105;28;20032;-58
2023/01/30 02:31:05;;;;;;;49.30;38.78;;;;;;;4.94;100.00;101594.66;5081016;28;20046;-58
2023/01/30 02:33:31;;;;;;;;;;;;;;;5.06;100.00;101585.53;5081721;28;20103;-58
2023/01/30 02:36:14;;;;;;;50.35;39.63;;;;;;;4.93;100.00;101585.00;5092180;28;19994;-58
2023/01/30 02:39:01;;;;;;;49.97;39.70;;;;;;;4.91;100.00;101578.03;5073528;28;20032;-58
2023/01/30 02:41:36;;;;;;;48.72;40.78;;;;;;;4.93;100.00;101582.38;5092077;28;20024;-58
2023/01/30 02:44:41;;;;;;;46.70;40.22;;;;;;;4.97;100.00;101580.50;5073052;28;20453;-58
2023/01/30 02:47:24;;;;;;;53.75;42.13;;;;;;;4.95;100.00;101587.59;5089566;28;20123;-58
2023/01/30 02:50:06;;;;;;;54.72;41.35;;;;;;;5.00;100.00;101598.91;5080543;28;20028;-58
2023/01/30 02:52:33;;;;;;;50.70;40.22;;;;;;;4.88;100.00;101575.47;5071632;28;20050;-58
2023/01/30 02:54:58;;;;;;;55.13;43.47;;;;;;;4.97;100.00;101585.78;5036994;28;20028;-58
2023/01/30 02:57:25;;;;;;;52.78;42.15;;;;;;;4.88;100.00;101575.47;5071655;28;20039;-58
2023/01/30 02:59:55;;;;;;;55.38;42.38;;;;;;;4.95;100.00;101585.81;5056059;28;20031;-58
2023/01/30 03:02:26;;;;;;;;;;;;;;;5.03;100.00;101593.53;5091894;28;20081;-58
2023/01/30 03:05:10;;;;;;;52.55;40.28;;;;;;;4.97;100.00;101584.03;5091733;28;20385;-58
2023/01/30 03:07:54;;;;;;;50.55;41.00;;;;;;;5.06;100.00;101566.19;5072314;28;20042;-58
2023/01/30 03:10:37;;;;;;;58.65;43.30;;;;;;;4.96;100.00;101570.88;5091242;28;20031;-58
2023/01/30 03:13:20;;;;;;;54.47;41.53;;;;;;;4.99;100.00;101573.41;5090605;28;20024;-58
2023/01/30 03:15:52;;;;;;;51.85;41.90;;;;;;;4.96;100.00;101574.38;5091386;28;20480;-58
2023/01/30 03:18:19;;;;;;;53.55;39.65;;;;;;;5.00;100.00;101560.22;5072728;28;20039;-58
2023/01/30 03:20:45;;;;;;;56.55;42.00;;;;;;;4.95;100.00;101546.28;5091111;28;20059;-58
2023/01/30 03:23:12;;;;;;;56.03;43.78;;;;;;;4.97;100.00;101551.50;5067423;28;20044;-58
2023/01/30 03:25:42;;;;;;;52.17;44.42;;;;;;;4.99;100.00;101557.59;5082458;28;20038;-58
2023/01/30 03:28:09;;;;;;;52.97;44.33;;;;;;;4.98;100.00;101566.44;5090685;28;20395;-58
2023/01/30 03:30:34;;;;;;;57.38;46.58;;;;;;;4.95;100.00;101562.09;5091121;28;20027;-58
2023/01/30 03:32:59;;;;;;;59.03;44.75;;;;;;;4.96;100.00;101550.63;5094430;28;20024;-58
2023/01/30 03:35:28;;;;;;;60.03;46.90;;;;;;;4.87;100.00;101542.16;5097337;28;20023;-58
2023/01/30 03:37:54;;;;;;;60.65;49.13;;;;;;;4.90;100.00;101555.22;5094984;28;20484;-58
2023/01/30 03:40:19;;;;;;;56.70;46.40;;;;;;;4.82;100.00;101544.03;5088228;28;20039;-58
2023/01/30 03:42:44;;;;;;;63.90;49.42;;;;;;;4.89;100.00;101548.25;5088820;28;20052;-58
2023/01/30 03:45:11;;;;;;;61.05;48.38;;;;;;;4.91;100.00;101533.22;5076442;28;20569;-58
2023/01/30 03:47:36;;;;;;;60.15;46.72;;;;;;;4.89;100.00;101541.19;5095211;28;20059;-58
2023/01/30 03:50:02;;;;;;;63.53;46.08;;;;;;;4.83;100.00;101540.50;5094015;28;20055;-58
2023/01/30 03:52:30;;;;;;;58.70;45.72;;;;;;;4.94;100.00;101541.94;5059963;28;20031;-58
2023/01/30 03:54:55;;;;;;;57.17;47.05;;;;;;;4.88;100.00;101539.47;5087103;28;20376;-58
2023/01/30 03:57:21;;;;;;;60.88;46.13;;;;;;;4.95;100.00;101541.03;5095556;28;20015;-58
2023/01/30 03:59:46;;;;;;;59.17;47.25;;;;;;;4.93;100.00;101541.97;5069671;28;20059;-58
2023/01/30 04:02:12;;;;;;;65.97;47.42;;;;;;;4.95;100.00;101548.06;5075849;28;20027;-58
2023/01/30 04:04:37;;;;;;;63.78;48.97;;;;;;;4.91;100.00;101536.75;5093448;28;20026;-58
2023/01/30 04:07:03;;;;;;;62.35;48.08;;;;;;;4.92;100.00;101546.38;5074174;28;20029;-58
2023/01/30 04:09:28;;;;;;;65.47;49.50;;;;;;;4.88;100.00;101543.84;5055864;28;20032;-58
2023/01/30 04:11:54;;;;;;;60.63;48.85;;;;;;;4.99;100.00;101552.34;5073964;28;20388;-58
2023/01/30 04:14:19;;;;;;;60.35;49.15;;;;;;;5.01;100.00;101547.88;5073127;28;20095;-58
2023/01/30 04:16:47;;;;;;;61.92;48.67;;;;;;;4.97;100.00;101530.41;5055750;28;20086;-58
2023/01/30 04:19:13;;;;;;;57.20;47.72;;;;;;;5.08;100.00;101532.75;5073534;28;20036;-58
2023/01/30 04:21:38;;;;;;;56.50;46.25;;;;;;;5.11;100.00;101538.78;5055349;28;20082;-59
2023/01/30 04:24:04;;;;;;;59.88;45.65;;;;;;;5.11;100.00;101541.44;5073712;28;20480;-58
2023/01/30 04:26:29;;;;;;;60.33;49.58;;;;;;;5.15;100.00;101535.19;5081897;28;20020;-58
2023/01/30 04:28:55;;;;;;;54.58;47.30;;;;;;;5.18;100.00;101540.34;5068231;28;20012;-58
2023/01/30 04:31:22;;;;;;;58.58;48.13;;;;;;;5.16;100.00;101533.41;5065584;28;20024;-59
2023/01/30 04:33:48;;;;;;;54.78;44.95;;;;;;;5.18;100.00;101529.81;5092346;28;20447;-58
2023/01/30 04:36:13;;;;;;;55.17;44.22;;;;;;;5.21;100.00;101527.09;5076962;28;20108;-58
2023/01/30 04:38:39;;;;;;;52.72;45.05;;;;;;;5.31;100.00;101532.06;5093302;28;20392;-57
2023/01/30 04:41:05;;;;;;;54.72;42.83;;;;;;;5.29;100.00;101526.81;5091316;28;20393;-58
2023/01/30 04:43:30;;;;;;;55.38;42.78;;;;;;;5.33;100.00;101532.91;5072125;28;20027;-58
2023/01/30 04:45:56;;;;;;;49.83;42.55;;;;;;;5.32;100.00;101529.38;5081996;28;20537;-58
2023/01/30 04:48:25;;;;;;;50.67;40.90;;;;;;;5.33;100.00;101535.53;5081461;28;20028;-58
2023/01/30 04:50:52;;;;;;;51.75;40.65;;;;;;;5.32;100.00;101536.44;5088896;28;20038;-58
2023/01/30 04:53:19;;;;;;;48.92;39.40;;;;;;;5.38;100.00;101533.59;5092945;28;20456;-58
2023/01/30 04:55:45;;;;;;;45.47;37.33;;;;;;;5.37;100.00;101532.75;5088785;28;20058;-58
2023/01/30 04:58:11;;;;;;;47.75;37.33;;;;;;;5.40;100.00;101537.91;5072561;28;20032;-58
2023/01/30 05:00:37;;;;;;;46.65;34.03;;;;;;;5.46;100.00;101547.44;5058460;28;20058;-58
2023/01/30 05:03:02;;;;;;;40.08;31.42;;;;;;;5.46;100.00;101537.72;5082218;28;20027;-58
2023/01/30 05:05:30;;;;;;;43.63;31.67;;;;;;;5.49;100.00;101541.19;5079873;28;20028;-58
2023/01/30 05:07:55;;;;;;;42.75;30.10;;;;;;;5.53;100.00;101533.16;5091741;28;20039;-58
2023/01/30 05:10:21;;;;;;;34.78;27.33;;;;;;;5.53;100.00;101538.44;5091600;28;20481;-58
2023/01/30 05:12:46;;;;;;;36.28;26.75;;;;;;;5.58;100.00;101539.13;5090622;28;20040;-58
2023/01/30 05:15:13;;;;;;;38.70;25.88;;;;;;;5.64;100.00;101551.28;5054035;28;20039;-58
2023/01/30 05:17:38;;;;;;;33.95;24.40;;;;;;;5.68;100.00;101545.00;5064962;28;20019;-58
2023/01/30 05:20:06;;;;;;;36.85;23.95;;;;;;;5.74;100.00;101543.94;5082437;28;20056;-58
2023/01/30 05:22:31;;;;;;;31.25;21.85;;;;;;;5.80;100.00;101541.97;5084495;28;20109;-58
2023/01/30 05:24:57;;;;;;;31.35;22.15;;;;;;;5.78;100.00;101549.06;5088202;28;20464;-58
2023/01/30 05:27:22;;;;;;;32.75;20.40;;;;;;;5.83;100.00;101526.03;5092665;28;20039;-58
2023/01/30 05:29:47;;;;;;;33.22;20.25;;;;;;;5.84;100.00;101537.44;5092433;28;20216;-58
2023/01/30 05:32:14;;;;;;;29.27;19.83;;;;;;;5.84;100.00;101537.44;5092672;28;20507;-58
2023/01/30 05:34:42;;;;;;;28.17;19.17;;;;;;;5.83;100.00;101533.94;5092720;28;20065;-58
2023/01/30 05:37:08;;;;;;;25.98;17.63;;;;;;;5.80;100.00;101528.78;5092589;28;20024;-58
2023/01/30 05:39:36;;;;;;;26.98;17.60;;;;;;;5.84;100.00;101537.44;5066063;28;20035;-58
2023/01/30 05:42:01;;;;;;;19.50;16.25;;;;;;;5.80;100.00;101527.91;5072231;28;20089;-58
2023/01/30 05:44:27;;;;;;;23.88;15.38;;;;;;;5.87;100.00;101540.84;5054232;28;20060;-58
2023/01/30 05:46:52;;;;;;;25.38;15.63;;;;;;;5.89;100.00;101539.03;5054551;28;20032;-58
2023/01/30 05:49:18;;;;;;;27.30;16.20;;;;;;;5.81;100.00;101514.66;5072040;28;20028;-58
2023/01/30 05:51:43;;;;;;;26.92;15.48;;;;;;;5.89;100.00;101532.88;5072295;28;20036;-58
2023/01/30 05:54:08;;;;;;;34.80;15.95;;;;;;;5.91;100.00;101525.75;5054080;28;20031;-58
2023/01/30 05:56:34;;;;;;;25.75;15.85;;;;;;;5.92;100.00;101520.44;5054745;28;20461;-58
2023/01/30 05:59:00;;;;;;;22.38;14.52;;;;;;;5.94;100.00;101530.97;5071697;28;20026;-58
2023/01/30 06:01:27;;;;;;;27.38;15.25;;;;;;;5.92;100.00;101536.28;5088656;28;20412;-58
2023/01/30 06:03:53;;;;;;;27.10;16.38;;;;;;;5.96;100.00;101562.63;5092000;28;20119;-58
2023/01/30 06:06:19;;;;;;;29.65;15.80;;;;;;;5.95;100.00;101566.19;5073857;28;20078;-58
2023/01/30 06:08:45;;;;;;;27.65;14.93;;;;;;;5.98;100.00;101560.81;5092082;28;20387;-58
2023/01/30 06:11:14;;;;;;;23.10;13.75;;;;;;;5.96;100.00;101555.56;5073491;28;20119;-58
2023/01/30 06:13:40;;;;;;;28.33;14.35;;;;;;;5.95;100.00;101564.41;5081826;28;20040;-58
2023/01/30 06:16:08;;;;;;;27.17;13.45;;;;;;;5.98;100.00;101566.94;5073358;28;20033;-58
2023/01/30 06:18:34;;;;;;;26.15;11.20;;;;;;;6.02;100.00;101558.00;5092348;28;20031;-59
2023/01/30 06:21:00;;;;;;;24.13;11.18;;;;;;;6.08;100.00;101556.94;5075013;28;20044;-58
2023/01/30 06:23:26;;;;;;;25.85;12.88;;;;;;;6.09;100.00;101558.69;5092275;28;20024;-58
2023/01/30 06:25:52;;;;;;;22.70;11.10;;;;;;;6.06;100.00;101557.00;5091793;28;20035;-58
2023/01/30 06:28:19;;;;;;;20.95;11.18;;;;;;;6.12;100.00;101572.63;5091467;28;20028;-58
2023/01/30 06:30:44;;;;;;;21.70;12.00;;;;;;;6.08;100.00;101576.28;5083260;28;20046;-58
2023/01/30 06:33:10;;;;;;;21.70;11.05;;;;;;;6.06;100.00;101578.13;5080121;28;20020;-59
2023/01/30 06:35:37;;;;;;;17.40;10.00;;;;;;;6.05;100.00;101599.28;5061918;28;20021;-59
2023/01/30 06:38:02;;;;;;;23.95;10.95;;;;;;;6.00;100.00;101609.13;5054102;28;20070;-59
2023/01/30 06:40:28;;;;;;;21.38;10.35;;;;;;;5.97;100.00;101599.56;5086659;28;20027;-58
2023/01/30 06:42:55;;;;;;;22.67;10.23;;;;;;;5.90;100.00;101597.97;5070446;28;20024;-58
2023/01/30 06:45:21;;;;;;;18.88;9.93;;;;;;;5.88;100.00;101589.22;5053599;28;20021;-59
2023/01/30 06:47:52;;;;;;;17.02;9.32;;;;;;;5.78;100.00;101582.53;5053497;28;20389;-58
2023/01/30 06:50:19;;;;;;;24.20;9.05;;;;;;;5.74;100.00;101602.88;5047570;28;20094;-58
2023/01/30 06:52:47;;;;;;;22.65;9.27;;;;;;;5.71;100.00;101610.88;5051398;28;20033;-58
2023/01/30 06:55:15;;;;;;;18.95;10.05;;;;;;;5.60;100.00;101591.88;5051113;28;20104;-58
2023/01/30 06:57:43;;;;;;;18.30;9.48;;;;;;;5.58;100.00;101602.44;5041521;28;20497;-59
2023/01/30 07:00:15;;;;;;;19.93;8.90;;;;;;;5.58;100.00;101601.59;5056203;28;20024;-58
2023/01/30 07:02:41;;;;;;;19.95;8.80;;;;;;;5.56;100.00;101584.94;5033323;28;20025;-59
2023/01/30 07:05:07;;;;;;;24.67;9.25;;;;;;;5.51;100.00;101579.81;5051067;28;20488;-58
2023/01/30 07:07:34;;;;;;;18.25;9.35;;;;;;;5.48;99.34;101572.00;5055096;28;20029;-58
2023/01/30 07:10:00;;;;;;;21.13;8.40;;;;;;;5.41;99.87;101573.97;5055728;28;20028;-58
2023/01/30 07:12:26;;;;;;;21.25;7.95;;;;;;;5.45;99.24;101580.88;5057936;28;20032;-58
2023/01/30 07:14:52;;;;;;;19.85;8.77;;;;;;;5.45;98.61;101595.84;5074981;28;20082;-59
2023/01/30 07:17:18;;;;;;;21.38;7.88;;;;;;;5.43;98.54;101592.38;5072097;28;20028;-59
2023/01/30 07:19:44;;;;;;;19.02;8.77;;;;;;;5.42;98.45;101596.78;5040188;28;20044;-59
2023/01/30 07:22:10;;;;;;;21.85;8.38;;;;;;;5.44;97.78;101588.81;5066646;28;20065;-59
2023/01/30 07:24:35;;;;;;;20.45;8.90;;;;;;;5.34;97.80;101600.56;5053801;28;20032;-59
2023/01/30 07:27:01;;;;;;;23.67;8.65;;;;;;;5.38;97.78;101610.09;5036850;28;20093;-58
2023/01/30 07:29:26;;;;;;;19.48;9.25;;;;;;;5.37;96.86;101601.31;5054457;28;20032;-59
2023/01/30 07:31:51;;;;;;;22.33;8.95;;;;;;;5.34;97.61;101606.69;5054844;28;20052;-59
2023/01/30 07:34:20;;;;;;;23.95;9.02;;;;;;;5.33;96.99;101615.53;5054795;28;20029;-59
2023/01/30 07:36:45;;;;;;;23.50;8.30;;;;;;;5.31;97.85;101614.69;5054794;28;20476;-59
2023/01/30 07:39:10;;;;;;;23.10;9.02;;;;;;;5.24;96.97;101606.09;5036386;28;20035;-59
2023/01/30 07:41:36;;;;;;;22.98;9.10;;;;;;;5.31;97.36;101630.53;5054647;28;20033;-59
2023/01/30 07:44:02;;;;;;;25.35;9.52;;;;;;;5.30;97.24;101618.25;5036251;28;20040;-59
2023/01/30 07:46:33;;;;;;;24.27;9.30;;;;;;;5.29;96.96;101627.06;5036849;28;20147;-58
2023/01/30 07:49:08;;;;;;;20.02;8.50;;;;;;;5.24;96.63;101635.09;5054675;28;20029;-58
2023/01/30 07:51:36;;;;;;;22.20;8.20;;;;;;;5.24;96.43;101635.09;5054268;28;20041;-59
2023/01/30 07:54:02;;;;;;;25.92;9.63;;;;;;;5.19;95.90;101631.72;5054358;28;20025;-58
2023/01/30 07:56:29;;;;;;;23.60;9.13;;;;;;;5.19;95.88;101637.00;5054404;28;20354;-58
2023/01/30 07:58:55;;;;;;;27.95;9.70;;;;;;;5.18;95.65;101627.38;5054122;28;20120;-59
2023/01/30 08:01:23;;;;;;;25.73;10.05;;;;;;;5.16;95.26;101625.69;5054170;28;20029;-59
2023/01/30 08:03:49;;;;;;;22.67;8.88;;;;;;;5.16;94.84;101639.72;5054129;28;20505;-59
2023/01/30 08:06:15;;;;;;;24.77;9.02;;;;;;;5.15;94.74;101639.78;5035872;28;20029;-58
2023/01/30 08:08:41;;;;;;;28.35;9.73;;;;;;;5.12;94.20;101630.19;5053980;28;20490;-58
2023/01/30 08:11:07;;;;;;;24.63;9.57;;;;;;;5.13;94.32;101633.69;5052618;28;20021;-59
2023/01/30 08:13:35;;;;;;;31.60;10.77;;;;;;;5.07;93.31;101633.84;5052043;28;20111;-58
2023/01/30 08:16:02;;;;;;;25.05;8.95;;;;;;;5.12;92.92;101650.41;5054015;28;20029;-58
2023/01/30 08:18:28;;;;;;;24.60;9.35;;;;;;;5.13;93.26;101654.78;5034638;28;20028;-58
2023/01/30 08:21:01;;;;;;;32.60;11.00;;;;;;;5.16;92.73;101655.56;5053502;28;20081;-59
2023/01/30 08:23:27;;;;;;;28.65;9.88;;;;;;;5.14;92.30;101662.63;5053544;28;20071;-58
2023/01/30 08:25:57;;;;;;;34.05;10.07;;;;;;;5.15;91.05;101656.47;5035749;28;20381;-58
2023/01/30 08:28:23;;;;;;;31.23;9.70;;;;;;;5.15;90.75;101663.50;5053523;28;20023;-59
2023/01/30 08:30:51;;;;;;;32.72;9.55;;;;;;;5.16;90.65;101665.25;5053837;28;20508;-58
2023/01/30 08:33:16;;;;;;;27.63;10.32;;;;;;;5.19;90.53;101668.66;5052299;28;20100;-58
2023/01/30 08:35:42;;;;;;;29.73;10.07;;;;;;;5.24;90.40;101664.13;5052439;28;20025;-58
2023/01/30 08:38:10;;;;;;;29.40;9.85;;;;;;;5.34;88.73;101675.28;5035396;28;20021;-58
2023/01/30 08:40:36;;;;;;;26.42;10.35;;;;;;;5.33;88.67;101662.13;5053364;28;20493;-58
2023/01/30 08:43:01;;;;;;;28.17;10.18;;;;;;;5.36;88.70;101657.63;5052208;28;20071;-58
2023/01/30 08:45:27;;;;;;;29.65;9.40;;;;;;;5.45;87.06;101677.63;5035722;28;20108;-59
2023/01/30 08:47:56;;;;;;;23.67;9.15;;;;;;;5.49;87.08;101686.31;5053378;28;20488;-58
2023/01/30 08:50:21;;;;;;;27.02;9.80;;;;;;;5.54;87.26;101682.63;5053209;28;20086;-58
2023/01/30 08:52:47;;;;;;;22.88;10.15;;;;;;;5.57;87.06;101690.44;5035231;28;20053;-58
2023/01/30 08:55:12;;;;;;;27.42;9.30;;;;;;;5.62;85.86;101687.69;5053046;28;20033;-58
2023/01/30 08:57:37;;;;;;;23.63;9.82;;;;;;;5.66;85.56;101691.97;5035482;28;20021;-58
2023/01/30 09:00:04;;;;;;;25.58;9.60;;;;;;;5.66;85.37;101684.03;5052623;28;20035;-59
2023/01/30 09:02:29;;;;;;;31.02;9.48;;;;;;;5.76;85.60;101693.41;5053174;28;20486;-58
2023/01/30 09:04:55;;;;;;;28.20;9.20;;;;;;;5.82;85.39;101695.84;5052774;28;20051;-58
2023/01/30 09:07:20;;;;;;;32.35;10.07;;;;;;;5.88;84.71;101703.63;5052562;28;20033;-58
2023/01/30 09:09:47;;;;;;;28.88;9.75;;;;;;;5.95;84.61;101714.03;5052802;28;20057;-58
2023/01/30 09:12:15;;;;;;;28.05;9.95;;;;;;;5.98;84.43;101716.59;5052521;28;20075;-58
2023/01/30 09:14:41;;;;;;;27.20;10.18;;;;;;;6.01;84.03;101709.44;5034417;28;20032;-58
2023/01/30 09:17:08;;;;;;;24.88;9.05;;;;;;;6.06;83.70;101726.00;5052715;28;20075;-59
2023/01/30 09:19:35;;;;;;;23.50;8.73;;;;;;;6.12;83.66;101722.31;5052094;28;20587;-58
2023/01/30 09:22:01;;;;;;;27.98;8.68;;;;;;;6.12;82.47;101712.63;5052487;28;20024;-59
2023/01/30 09:24:29;;;;;;;22.23;8.45;;;;;;;6.18;82.56;101719.50;5052397;28;20535;-58
2023/01/30 09:26:57;;;;;;;20.55;9.38;;;;;;;6.26;83.82;101725.38;5052721;28;20124;-58
2023/01/30 09:29:23;;;;;;;25.80;8.38;;;;;;;6.29;82.75;101733.19;5051751;28;20025;-59
2023/01/30 09:31:49;;;;;;;25.00;9.20;;;;;;;6.30;82.75;101724.38;5034769;28;20120;-58
2023/01/30 09:34:16;;;;;;;29.67;9.82;;;;;;;6.35;83.37;101721.59;5034257;28;20111;-58
2023/01/30 09:36:44;;;;;;;23.00;9.18;;;;;;;6.45;82.25;101738.91;5052393;28;20066;-59
2023/01/30 09:39:10;;;;;;;25.80;8.43;;;;;;;6.56;82.75;101739.41;5052221;28;20025;-59
2023/01/30 09:41:52;;;;;;;26.90;8.68;;;;;;;6.66;82.23;101747.06;5034589;28;20031;-58
2023/01/30 09:44:42;;;;;;;28.60;8.68;;;;;;;6.77;81.57;101758.16;5033891;28;20548;-59
2023/01/30 09:47:12;;;;;;;24.30;8.25;;;;;;;6.86;79.64;101751.69;5052067;28;20033;-58
2023/01/30 09:50:02;;;;;;;24.27;8.90;;;;;;;6.91;79.37;101753.28;5052082;28;20028;-58
2023/01/30 09:52:50;;;;;;;21.55;8.27;;;;;;;6.86;79.83;101756.97;5052313;28;20021;-58
2023/01/30 09:55:22;;;;;;;21.08;8.23;;;;;;;6.78;79.46;101762.50;5033946;28;20032;-59
2023/01/30 09:57:49;;;;;;;26.27;7.97;;;;;;;6.71;79.97;101759.22;5034280;28;20032;-58
2023/01/30 10:00:33;;;;;;;26.23;7.85;;;;;;;6.73;80.24;101760.00;5051316;28;20033;-58
2023/01/30 10:03:07;;;;;;;25.25;8.80;;;;;;;6.75;80.52;101775.81;5033847;28;20443;-58
2023/01/30 10:05:44;;;;;;;22.83;7.60;;;;;;;6.69;79.38;101765.44;5034259;28;20039;-58
2023/01/30 10:08:20;;;;;;;21.35;7.60;;;;;;;6.70;78.67;101769.81;5033923;28;20028;-58
2023/01/30 10:10:51;;;;;;;23.27;8.02;;;;;;;6.74;78.97;101774.13;5051817;28;20048;-59
2023/01/30 10:13:40;;;;;;;22.60;7.95;;;;;;;6.77;78.72;101776.66;5050897;28;20048;-59
2023/01/30 10:16:18;;;;;;;22.45;8.32;;;;;;;6.77;78.87;101780.16;5014858;28;20072;-58
2023/01/30 10:18:53;;;;;;;33.88;7.95;;;;;;;6.78;78.26;101778.38;5051398;28;20029;-59
2023/01/30 10:21:27;;;;;;;27.27;7.97;;;;;;;6.73;78.52;101773.22;5033636;28;20107;-59
2023/01/30 10:24:11;;;;;;;28.10;8.82;;;;;;;6.78;77.45;101779.22;5051494;28;20044;-59
2023/01/30 10:26:40;;;;;;;27.73;8.25;;;;;;;6.77;77.18;101784.59;5033297;28;20422;-59
2023/01/30 10:29:18;;;;;;;23.25;8.02;;;;;;;6.77;78.01;101793.38;5050934;28;20504;-58
2023/01/30 10:32:19;;;;;;;21.20;7.72;;;;;;;6.79;77.68;101794.19;5033628;28;20028;-58
2023/01/30 10:34:54;;;;;;;24.73;8.40;;;;;;;6.80;77.63;101797.69;5045803;28;20048;-58
2023/01/30 10:37:28;;;;;;;23.70;8.75;;;;;;;6.79;77.00;101788.91;5051585;28;20029;-59
2023/01/30 10:40:31;;;;;;;15.50;7.68;;;;;;;6.91;77.66;101794.69;5051634;28;20029;-59
2023/01/30 10:43:21;;;;;;;20.38;8.15;;;;;;;6.92;76.39;101786.72;5050552;28;20047;-58
2023/01/30 10:45:54;;;;;;;;;;;;;;;7.10;77.04;101795.81;5033892;28;20040;-59
2023/01/30 10:48:44;;;;;;;22.80;7.43;;;;;;;7.03;77.61;101789.88;5051297;28;19958;-58
2023/01/30 10:51:44;;;;;;;22.75;7.60;;;;;;;7.02;76.22;101803.16;5051340;28;20080;-59
2023/01/30 10:54:23;;;;;;;27.58;9.55;;;;;;;6.93;75.31;101820.19;5051129;28;20029;-59
2023/01/30 10:57:14;;;;;;;22.20;8.05;;;;;;;6.81;75.81;101805.56;5051485;28;20033;-59
2023/01/30 10:59:48;;;;;;;19.00;7.63;;;;;;;6.82;76.89;101814.38;5050776;28;20477;-59
2023/01/30 11:02:19;;;;;;;18.90;7.07;;;;;;;6.76;77.35;101809.28;5033268;28;20040;-59
2023/01/30 11:04:58;;;;;;;24.05;8.57;;;;;;;6.75;76.99;101807.56;5051141;28;20020;-59
2023/01/30 11:07:24;;;;;;;20.15;8.48;;;;;;;6.66;76.52;101797.28;5051544;28;20026;-58
2023/01/30 11:09:50;;;;;;;22.98;7.18;;;;;;;6.71;75.07;101806.78;5033454;28;20095;-58
2023/01/30 11:12:15;;;;;;;20.45;8.10;;;;;;;6.69;75.86;101813.03;5033283;28;20033;-58
2023/01/30 11:14:57;;;;;;;24.42;8.38;;;;;;;6.68;75.87;101813.97;5032554;28;20489;-59
2023/01/30 11:17:46;;;;;;;23.92;8.23;;;;;;;6.68;75.70;101821.88;5051045;28;20081;-58
2023/01/30 11:20:21;;;;;;;24.15;8.55;;;;;;;6.70;75.56;101818.25;5050775;28;20049;-58
2023/01/30 11:22:59;;;;;;;25.52;8.77;;;;;;;6.69;75.01;101815.69;5051025;28;20473;-58
2023/01/30 11:25:24;;;;;;;18.73;8.38;;;;;;;6.66;75.03;101802.56;5051051;28;20028;-58
2023/01/30 11:27:55;;;;;;;24.20;8.57;;;;;;;6.59;75.20;101797.47;5051038;28;20474;-58
2023/01/30 11:30:27;;;;;;;20.40;8.75;;;;;;;6.74;74.63;101811.97;5032651;28;20102;-58
2023/01/30 11:33:05;;;;;;;20.15;8.55;;;;;;;6.84;74.58;101812.53;5050932;28;20025;-58
2023/01/30 11:35:34;;;;;;;21.35;8.60;;;;;;;6.80;73.91;101801.22;5050874;28;20124;-58